sensor_id;sensor_type;location;lat;lon;timestamp;temperature;humidity
1107;DHT22;540;49.448;8.612;2023-06-24T00:00:08;20.10;93.80
1107;DHT22;540;49.448;8.612;2023-06-24T00:02:38;19.60;93.70
1107;DHT22;540;49.448;8.612;2023-06-24T00:05:10;19.70;93.70
1107;DHT22;540;49.448;8.612;2023-06-24T00:07:39;19.60;93.00
1107;DHT22;540;49.448;8.612;2023-06-24T00:10:13;19.40;92.50
1107;DHT22;540;49.448;8.612;2023-06-24T00:12:43;19.80;92.40
1107;DHT22;540;49.448;8.612;2023-06-24T00:15:12;20.00;92.70
1107;DHT22;540;49.448;8.612;2023-06-24T00:17:40;20.10;93.30
1107;DHT22;540;49.448;8.612;2023-06-24T00:20:09;20.20;93.00
1107;DHT22;540;49.448;8.612;2023-06-24T00:22:42;19.90;92.60
1107;DHT22;540;49.448;8.612;2023-06-24T00:25:11;20.00;91.60
1107;DHT22;540;49.448;8.612;2023-06-24T00:27:40;20.20;91.10
1107;DHT22;540;49.448;8.612;2023-06-24T00:30:09;20.00;90.50
1107;DHT22;540;49.448;8.612;2023-06-24T00:32:37;20.00;90.80
1107;DHT22;540;49.448;8.612;2023-06-24T00:35:06;19.60;91.80
1107;DHT22;540;49.448;8.612;2023-06-24T00:37:34;20.00;94.20
1107;DHT22;540;49.448;8.612;2023-06-24T00:40:04;19.70;94.90
1107;DHT22;540;49.448;8.612;2023-06-24T00:42:32;19.70;94.40
1107;DHT22;540;49.448;8.612;2023-06-24T00:45:01;19.70;95.60
1107;DHT22;540;49.448;8.612;2023-06-24T00:47:30;19.90;92.20
1107;DHT22;540;49.448;8.612;2023-06-24T00:50:01;19.30;91.00
1107;DHT22;540;49.448;8.612;2023-06-24T00:52:29;19.90;91.10
1107;DHT22;540;49.448;8.612;2023-06-24T00:54:57;19.50;90.90
1107;DHT22;540;49.448;8.612;2023-06-24T00:57:26;19.60;91.30
1107;DHT22;540;49.448;8.612;2023-06-24T00:59:56;19.90;91.30
1107;DHT22;540;49.448;8.612;2023-06-24T01:02:26;19.30;91.20
1107;DHT22;540;49.448;8.612;2023-06-24T01:04:55;19.60;90.90
1107;DHT22;540;49.448;8.612;2023-06-24T01:07:23;19.80;90.90
1107;DHT22;540;49.448;8.612;2023-06-24T01:09:52;19.60;91.70
1107;DHT22;540;49.448;8.612;2023-06-24T01:12:20;19.30;91.60
1107;DHT22;540;49.448;8.612;2023-06-24T01:14:49;19.80;91.10
1107;DHT22;540;49.448;8.612;2023-06-24T01:17:21;19.70;91.90
1107;DHT22;540;49.448;8.612;2023-06-24T01:20:02;19.60;97.30
1107;DHT22;540;49.448;8.612;2023-06-24T01:23:18;19.00;99.90
1107;DHT22;540;49.448;8.612;2023-06-24T01:26:08;19.60;99.90
1107;DHT22;540;49.448;8.612;2023-06-24T01:29:06;19.40;99.90
1107;DHT22;540;49.448;8.612;2023-06-24T01:31:40;19.30;99.90
1107;DHT22;540;49.448;8.612;2023-06-24T01:34:18;19.40;99.90
1107;DHT22;540;49.448;8.612;2023-06-24T01:37:10;19.20;99.90
1107;DHT22;540;49.448;8.612;2023-06-24T01:39:46;19.20;99.90
1107;DHT22;540;49.448;8.612;2023-06-24T01:42:16;19.40;99.90
1107;DHT22;540;49.448;8.612;2023-06-24T01:44:45;19.20;99.90
1107;DHT22;540;49.448;8.612;2023-06-24T01:47:18;19.10;98.80
1107;DHT22;540;49.448;8.612;2023-06-24T01:49:48;19.20;99.30
1107;DHT22;540;49.448;8.612;2023-06-24T01:52:18;18.90;99.90
1107;DHT22;540;49.448;8.612;2023-06-24T01:54:48;19.70;98.40
1107;DHT22;540;49.448;8.612;2023-06-24T01:57:17;19.10;97.80
1107;DHT22;540;49.448;8.612;2023-06-24T01:59:46;19.10;98.30
1107;DHT22;540;49.448;8.612;2023-06-24T02:02:15;19.20;98.80
1107;DHT22;540;49.448;8.612;2023-06-24T02:04:47;19.30;99.90
1107;DHT22;540;49.448;8.612;2023-06-24T02:07:16;19.10;99.90
1107;DHT22;540;49.448;8.612;2023-06-24T02:09:46;19.10;99.90
1107;DHT22;540;49.448;8.612;2023-06-24T02:12:15;19.00;99.90
1107;DHT22;540;49.448;8.612;2023-06-24T02:14:43;19.30;99.90
1107;DHT22;540;49.448;8.612;2023-06-24T02:17:12;19.10;98.40
1107;DHT22;540;49.448;8.612;2023-06-24T02:19:42;19.10;97.90
1107;DHT22;540;49.448;8.612;2023-06-24T02:22:11;19.00;96.80
1107;DHT22;540;49.448;8.612;2023-06-24T02:24:40;19.00;96.90
1107;DHT22;540;49.448;8.612;2023-06-24T02:27:09;19.20;97.50
1107;DHT22;540;49.448;8.612;2023-06-24T02:29:39;19.10;95.30
1107;DHT22;540;49.448;8.612;2023-06-24T02:32:08;19.20;96.50
1107;DHT22;540;49.448;8.612;2023-06-24T02:34:36;19.00;98.10
1107;DHT22;540;49.448;8.612;2023-06-24T02:37:06;18.60;99.40
1107;DHT22;540;49.448;8.612;2023-06-24T02:39:33;18.90;99.20
1107;DHT22;540;49.448;8.612;2023-06-24T02:42:02;18.80;98.10
1107;DHT22;540;49.448;8.612;2023-06-24T02:44:30;19.10;98.90
1107;DHT22;540;49.448;8.612;2023-06-24T02:46:58;18.90;99.10
1107;DHT22;540;49.448;8.612;2023-06-24T02:49:27;18.90;98.30
1107;DHT22;540;49.448;8.612;2023-06-24T02:51:55;18.80;97.00
1107;DHT22;540;49.448;8.612;2023-06-24T02:54:24;19.00;98.60
1107;DHT22;540;49.448;8.612;2023-06-24T02:56:53;19.10;99.90
1107;DHT22;540;49.448;8.612;2023-06-24T02:59:25;18.90;99.30
1107;DHT22;540;49.448;8.612;2023-06-24T03:01:53;18.50;98.60
1107;DHT22;540;49.448;8.612;2023-06-24T03:04:22;19.00;98.50
1107;DHT22;540;49.448;8.612;2023-06-24T03:06:50;19.00;98.00
1107;DHT22;540;49.448;8.612;2023-06-24T03:09:19;18.80;97.40
1107;DHT22;540;49.448;8.612;2023-06-24T03:11:48;19.10;96.90
1107;DHT22;540;49.448;8.612;2023-06-24T03:14:16;18.80;96.10
1107;DHT22;540;49.448;8.612;2023-06-24T03:16:44;18.70;96.20
1107;DHT22;540;49.448;8.612;2023-06-24T03:19:11;18.70;98.70
1107;DHT22;540;49.448;8.612;2023-06-24T03:21:39;18.80;99.90
1107;DHT22;540;49.448;8.612;2023-06-24T03:24:07;18.70;99.90
1107;DHT22;540;49.448;8.612;2023-06-24T03:26:37;18.50;99.20
1107;DHT22;540;49.448;8.612;2023-06-24T03:29:06;18.60;97.30
1107;DHT22;540;49.448;8.612;2023-06-24T03:31:35;18.80;97.00
1107;DHT22;540;49.448;8.612;2023-06-24T03:34:03;19.00;97.20
1107;DHT22;540;49.448;8.612;2023-06-24T03:36:30;18.40;95.60
1107;DHT22;540;49.448;8.612;2023-06-24T03:39:01;18.40;95.50
1107;DHT22;540;49.448;8.612;2023-06-24T03:41:29;18.50;95.70
1107;DHT22;540;49.448;8.612;2023-06-24T03:43:57;18.50;96.50
1107;DHT22;540;49.448;8.612;2023-06-24T03:46:26;18.60;97.50
1107;DHT22;540;49.448;8.612;2023-06-24T03:48:59;18.50;99.90
1107;DHT22;540;49.448;8.612;2023-06-24T03:51:27;18.40;99.90
1107;DHT22;540;49.448;8.612;2023-06-24T03:53:55;17.90;99.90
1107;DHT22;540;49.448;8.612;2023-06-24T03:56:23;18.40;98.60
1107;DHT22;540;49.448;8.612;2023-06-24T03:58:51;18.30;97.80
1107;DHT22;540;49.448;8.612;2023-06-24T04:01:19;18.40;97.10
1107;DHT22;540;49.448;8.612;2023-06-24T04:03:48;18.40;96.90
1107;DHT22;540;49.448;8.612;2023-06-24T04:06:16;18.40;97.00
1107;DHT22;540;49.448;8.612;2023-06-24T04:08:44;18.30;97.00
1107;DHT22;540;49.448;8.612;2023-06-24T04:11:15;18.10;97.20
1107;DHT22;540;49.448;8.612;2023-06-24T04:13:43;18.40;97.40
1107;DHT22;540;49.448;8.612;2023-06-24T04:16:11;18.40;97.00
1107;DHT22;540;49.448;8.612;2023-06-24T04:18:39;18.50;97.20
1107;DHT22;540;49.448;8.612;2023-06-24T04:21:08;18.30;96.90
1107;DHT22;540;49.448;8.612;2023-06-24T04:23:36;18.40;97.00
1107;DHT22;540;49.448;8.612;2023-06-24T04:26:04;18.40;97.80
1107;DHT22;540;49.448;8.612;2023-06-24T04:28:32;18.10;97.60
1107;DHT22;540;49.448;8.612;2023-06-24T04:31:00;18.70;97.50
1107;DHT22;540;49.448;8.612;2023-06-24T04:33:28;18.90;96.40
1107;DHT22;540;49.448;8.612;2023-06-24T04:35:56;18.80;95.10
1107;DHT22;540;49.448;8.612;2023-06-24T04:38:26;19.00;94.00
1107;DHT22;540;49.448;8.612;2023-06-24T04:40:54;18.70;93.20
1107;DHT22;540;49.448;8.612;2023-06-24T04:43:23;19.20;93.10
1107;DHT22;540;49.448;8.612;2023-06-24T04:45:51;19.00;93.10
1107;DHT22;540;49.448;8.612;2023-06-24T04:48:23;19.30;93.10
1107;DHT22;540;49.448;8.612;2023-06-24T04:50:50;19.20;92.30
1107;DHT22;540;49.448;8.612;2023-06-24T04:53:20;19.40;92.20
1107;DHT22;540;49.448;8.612;2023-06-24T04:55:49;19.60;92.10
1107;DHT22;540;49.448;8.612;2023-06-24T04:58:17;19.40;91.90
1107;DHT22;540;49.448;8.612;2023-06-24T05:00:45;19.10;91.70
1107;DHT22;540;49.448;8.612;2023-06-24T05:03:13;19.40;92.00
1107;DHT22;540;49.448;8.612;2023-06-24T05:05:41;19.20;91.80
1107;DHT22;540;49.448;8.612;2023-06-24T05:08:09;19.30;91.60
1107;DHT22;540;49.448;8.612;2023-06-24T05:10:37;19.80;91.40
1107;DHT22;540;49.448;8.612;2023-06-24T05:13:06;19.90;91.00
1107;DHT22;540;49.448;8.612;2023-06-24T05:15:34;20.00;90.60
1107;DHT22;540;49.448;8.612;2023-06-24T05:18:02;19.90;89.60
1107;DHT22;540;49.448;8.612;2023-06-24T05:20:30;20.50;87.40
1107;DHT22;540;49.448;8.612;2023-06-24T05:22:58;22.30;78.50
1107;DHT22;540;49.448;8.612;2023-06-24T05:25:26;24.10;67.70
1107;DHT22;540;49.448;8.612;2023-06-24T05:27:54;25.70;60.60
1107;DHT22;540;49.448;8.612;2023-06-24T05:30:23;26.80;55.40
1107;DHT22;540;49.448;8.612;2023-06-24T05:32:51;27.70;52.30
1107;DHT22;540;49.448;8.612;2023-06-24T05:35:18;28.30;50.80
1107;DHT22;540;49.448;8.612;2023-06-24T05:37:46;28.90;48.70
1107;DHT22;540;49.448;8.612;2023-06-24T05:40:14;29.40;47.00
1107;DHT22;540;49.448;8.612;2023-06-24T05:42:42;29.60;46.20
1107;DHT22;540;49.448;8.612;2023-06-24T05:45:10;29.70;45.80
1107;DHT22;540;49.448;8.612;2023-06-24T05:47:40;30.10;44.90
1107;DHT22;540;49.448;8.612;2023-06-24T05:50:08;30.50;44.20
1107;DHT22;540;49.448;8.612;2023-06-24T05:52:36;30.60;44.00
1107;DHT22;540;49.448;8.612;2023-06-24T05:55:04;30.60;43.00
1107;DHT22;540;49.448;8.612;2023-06-24T05:57:32;30.80;42.80
1107;DHT22;540;49.448;8.612;2023-06-24T06:00:00;31.20;41.70
1107;DHT22;540;49.448;8.612;2023-06-24T06:02:30;31.20;41.60
1107;DHT22;540;49.448;8.612;2023-06-24T06:04:59;31.10;41.20
1107;DHT22;540;49.448;8.612;2023-06-24T06:07:28;31.60;40.50
1107;DHT22;540;49.448;8.612;2023-06-24T06:09:55;32.10;39.60
1107;DHT22;540;49.448;8.612;2023-06-24T06:12:23;32.20;38.90
1107;DHT22;540;49.448;8.612;2023-06-24T06:14:51;32.40;38.40
1107;DHT22;540;49.448;8.612;2023-06-24T06:17:19;32.40;37.90
1107;DHT22;540;49.448;8.612;2023-06-24T06:19:47;32.90;37.20
1107;DHT22;540;49.448;8.612;2023-06-24T06:22:19;33.30;36.10
1107;DHT22;540;49.448;8.612;2023-06-24T06:24:47;33.60;35.80
1107;DHT22;540;49.448;8.612;2023-06-24T06:27:15;33.50;34.90
1107;DHT22;540;49.448;8.612;2023-06-24T06:29:43;33.00;35.30
1107;DHT22;540;49.448;8.612;2023-06-24T06:32:11;33.20;34.70
1107;DHT22;540;49.448;8.612;2023-06-24T06:34:38;33.20;35.00
1107;DHT22;540;49.448;8.612;2023-06-24T06:37:06;33.30;35.20
1107;DHT22;540;49.448;8.612;2023-06-24T06:39:35;33.50;34.80
1107;DHT22;540;49.448;8.612;2023-06-24T06:42:03;33.60;34.20
1107;DHT22;540;49.448;8.612;2023-06-24T06:44:31;33.70;34.00
1107;DHT22;540;49.448;8.612;2023-06-24T06:46:59;33.90;33.70
1107;DHT22;540;49.448;8.612;2023-06-24T06:49:27;34.20;33.60
1107;DHT22;540;49.448;8.612;2023-06-24T06:51:55;34.20;32.90
1107;DHT22;540;49.448;8.612;2023-06-24T06:54:23;33.80;32.50
1107;DHT22;540;49.448;8.612;2023-06-24T06:56:52;33.90;32.50
1107;DHT22;540;49.448;8.612;2023-06-24T06:59:20;34.70;30.50
1107;DHT22;540;49.448;8.612;2023-06-24T07:01:48;34.70;29.90
1107;DHT22;540;49.448;8.612;2023-06-24T07:04:16;34.70;29.90
1107;DHT22;540;49.448;8.612;2023-06-24T07:06:43;34.60;30.00
1107;DHT22;540;49.448;8.612;2023-06-24T07:09:11;34.50;29.60
1107;DHT22;540;49.448;8.612;2023-06-24T07:11:39;34.80;29.60
1107;DHT22;540;49.448;8.612;2023-06-24T07:14:08;34.40;29.40
1107;DHT22;540;49.448;8.612;2023-06-24T07:16:37;34.50;30.00
1107;DHT22;540;49.448;8.612;2023-06-24T07:19:05;34.90;29.50
1107;DHT22;540;49.448;8.612;2023-06-24T07:21:33;35.00;29.00
1107;DHT22;540;49.448;8.612;2023-06-24T07:24:00;34.90;29.20
1107;DHT22;540;49.448;8.612;2023-06-24T07:26:28;34.60;29.50
1107;DHT22;540;49.448;8.612;2023-06-24T07:28:57;34.90;29.20
1107;DHT22;540;49.448;8.612;2023-06-24T07:31:36;35.20;28.70
1107;DHT22;540;49.448;8.612;2023-06-24T07:34:04;35.70;28.10
1107;DHT22;540;49.448;8.612;2023-06-24T07:36:32;35.90;27.80
1107;DHT22;540;49.448;8.612;2023-06-24T07:39:00;36.20;27.60
1107;DHT22;540;49.448;8.612;2023-06-24T07:41:28;36.80;27.00
1107;DHT22;540;49.448;8.612;2023-06-24T07:43:55;37.00;26.40
1107;DHT22;540;49.448;8.612;2023-06-24T07:46:23;36.70;26.50
1107;DHT22;540;49.448;8.612;2023-06-24T07:48:55;37.00;26.50
1107;DHT22;540;49.448;8.612;2023-06-24T07:51:23;37.30;26.10
1107;DHT22;540;49.448;8.612;2023-06-24T07:53:51;37.60;26.30
1107;DHT22;540;49.448;8.612;2023-06-24T07:56:18;37.90;25.30
1107;DHT22;540;49.448;8.612;2023-06-24T07:58:46;37.70;25.60
1107;DHT22;540;49.448;8.612;2023-06-24T08:01:16;37.60;25.40
1107;DHT22;540;49.448;8.612;2023-06-24T08:03:45;37.40;25.80
1107;DHT22;540;49.448;8.612;2023-06-24T08:06:17;37.30;25.70
1107;DHT22;540;49.448;8.612;2023-06-24T08:08:47;37.30;25.90
1107;DHT22;540;49.448;8.612;2023-06-24T08:11:16;36.70;26.10
1107;DHT22;540;49.448;8.612;2023-06-24T08:13:46;36.80;26.50
1107;DHT22;540;49.448;8.612;2023-06-24T08:16:16;36.90;26.30
1107;DHT22;540;49.448;8.612;2023-06-24T08:18:46;37.00;26.00
1107;DHT22;540;49.448;8.612;2023-06-24T08:21:18;36.50;26.00
1107;DHT22;540;49.448;8.612;2023-06-24T08:23:48;35.40;27.30
1107;DHT22;540;49.448;8.612;2023-06-24T08:26:20;35.70;26.80
1107;DHT22;540;49.448;8.612;2023-06-24T08:28:49;35.80;27.30
1107;DHT22;540;49.448;8.612;2023-06-24T08:34:23;36.30;26.80
1107;DHT22;540;49.448;8.612;2023-06-24T08:36:55;36.30;26.60
1107;DHT22;540;49.448;8.612;2023-06-24T08:39:25;35.80;27.10
1107;DHT22;540;49.448;8.612;2023-06-24T08:41:55;36.10;26.70
1107;DHT22;540;49.448;8.612;2023-06-24T08:44:24;36.30;26.90
1107;DHT22;540;49.448;8.612;2023-06-24T08:46:52;36.90;26.20
1107;DHT22;540;49.448;8.612;2023-06-24T08:49:27;37.00;25.80
1107;DHT22;540;49.448;8.612;2023-06-24T08:52:01;36.60;25.30
1107;DHT22;540;49.448;8.612;2023-06-24T08:54:30;36.10;25.90
1107;DHT22;540;49.448;8.612;2023-06-24T08:57:01;36.10;26.10
1107;DHT22;540;49.448;8.612;2023-06-24T08:59:33;35.80;26.10
1107;DHT22;540;49.448;8.612;2023-06-24T09:02:01;35.80;26.20
1107;DHT22;540;49.448;8.612;2023-06-24T09:04:30;35.20;26.70
1107;DHT22;540;49.448;8.612;2023-06-24T09:06:59;34.70;27.30
1107;DHT22;540;49.448;8.612;2023-06-24T09:09:27;35.10;27.50
1107;DHT22;540;49.448;8.612;2023-06-24T09:11:56;34.80;27.00
1107;DHT22;540;49.448;8.612;2023-06-24T09:14:26;35.10;27.20
1107;DHT22;540;49.448;8.612;2023-06-24T09:16:54;35.80;26.80
1107;DHT22;540;49.448;8.612;2023-06-24T09:19:23;36.00;26.40
1107;DHT22;540;49.448;8.612;2023-06-24T09:21:51;36.20;25.90
1107;DHT22;540;49.448;8.612;2023-06-24T09:24:20;35.90;26.60
1107;DHT22;540;49.448;8.612;2023-06-24T09:26:48;36.30;26.20
1107;DHT22;540;49.448;8.612;2023-06-24T09:29:16;36.20;26.00
1107;DHT22;540;49.448;8.612;2023-06-24T09:31:48;36.40;26.30
1107;DHT22;540;49.448;8.612;2023-06-24T09:34:17;36.20;26.10
1107;DHT22;540;49.448;8.612;2023-06-24T09:36:50;35.50;26.10
1107;DHT22;540;49.448;8.612;2023-06-24T09:39:18;34.90;26.90
1107;DHT22;540;49.448;8.612;2023-06-24T09:41:58;34.40;27.60
1107;DHT22;540;49.448;8.612;2023-06-24T09:44:26;34.80;27.70
1107;DHT22;540;49.448;8.612;2023-06-24T09:46:55;35.50;27.50
1107;DHT22;540;49.448;8.612;2023-06-24T09:49:23;35.30;27.10
1107;DHT22;540;49.448;8.612;2023-06-24T09:51:56;35.00;27.40
1107;DHT22;540;49.448;8.612;2023-06-24T09:54:25;34.30;28.10
1107;DHT22;540;49.448;8.612;2023-06-24T09:57:02;33.80;29.20
1107;DHT22;540;49.448;8.612;2023-06-24T09:59:31;34.50;29.10
1107;DHT22;540;49.448;8.612;2023-06-24T10:02:02;34.70;28.40
1107;DHT22;540;49.448;8.612;2023-06-24T10:04:31;34.80;28.20
1107;DHT22;540;49.448;8.612;2023-06-24T10:07:00;34.80;27.60
1107;DHT22;540;49.448;8.612;2023-06-24T10:09:29;34.90;27.50
1107;DHT22;540;49.448;8.612;2023-06-24T10:11:57;35.40;27.10
1107;DHT22;540;49.448;8.612;2023-06-24T10:14:28;35.00;27.30
1107;DHT22;540;49.448;8.612;2023-06-24T10:17:02;35.00;27.10
1107;DHT22;540;49.448;8.612;2023-06-24T10:19:30;34.40;27.70
1107;DHT22;540;49.448;8.612;2023-06-24T10:22:07;34.50;28.00
1107;DHT22;540;49.448;8.612;2023-06-24T10:24:36;34.50;27.60
1107;DHT22;540;49.448;8.612;2023-06-24T10:27:08;33.90;27.80
1107;DHT22;540;49.448;8.612;2023-06-24T10:29:38;32.80;29.20
1107;DHT22;540;49.448;8.612;2023-06-24T10:32:07;32.40;30.00
1107;DHT22;540;49.448;8.612;2023-06-24T10:34:39;33.00;29.60
1107;DHT22;540;49.448;8.612;2023-06-24T10:37:09;33.10;29.60
1107;DHT22;540;49.448;8.612;2023-06-24T10:39:49;33.10;29.30
1107;DHT22;540;49.448;8.612;2023-06-24T10:42:37;33.00;29.60
1107;DHT22;540;49.448;8.612;2023-06-24T10:45:24;33.40;29.50
1107;DHT22;540;49.448;8.612;2023-06-24T10:47:52;33.80;29.20
1107;DHT22;540;49.448;8.612;2023-06-24T10:50:23;34.00;29.30
1107;DHT22;540;49.448;8.612;2023-06-24T10:52:52;34.30;29.00
1107;DHT22;540;49.448;8.612;2023-06-24T10:55:22;34.40;28.70
1107;DHT22;540;49.448;8.612;2023-06-24T10:57:51;34.10;29.00
1107;DHT22;540;49.448;8.612;2023-06-24T11:00:20;34.10;29.20
1107;DHT22;540;49.448;8.612;2023-06-24T11:02:49;34.20;29.10
1107;DHT22;540;49.448;8.612;2023-06-24T11:05:18;34.30;29.10
1107;DHT22;540;49.448;8.612;2023-06-24T11:07:45;34.50;28.70
1107;DHT22;540;49.448;8.612;2023-06-24T11:10:14;34.70;28.20
1107;DHT22;540;49.448;8.612;2023-06-24T11:12:43;34.90;28.10
1107;DHT22;540;49.448;8.612;2023-06-24T11:15:13;34.70;27.80
1107;DHT22;540;49.448;8.612;2023-06-24T11:17:41;34.50;28.30
1107;DHT22;540;49.448;8.612;2023-06-24T11:20:11;33.80;28.90
1107;DHT22;540;49.448;8.612;2023-06-24T11:22:40;33.20;29.40
1107;DHT22;540;49.448;8.612;2023-06-24T11:25:14;32.90;29.70
1107;DHT22;540;49.448;8.612;2023-06-24T11:27:43;32.70;29.70
1107;DHT22;540;49.448;8.612;2023-06-24T11:30:12;32.70;29.80
1107;DHT22;540;49.448;8.612;2023-06-24T11:32:42;32.80;29.80
1107;DHT22;540;49.448;8.612;2023-06-24T11:35:12;32.50;30.20
1107;DHT22;540;49.448;8.612;2023-06-24T11:37:42;32.50;30.30
1107;DHT22;540;49.448;8.612;2023-06-24T11:40:12;32.60;31.20
1107;DHT22;540;49.448;8.612;2023-06-24T11:42:42;32.50;30.10
1107;DHT22;540;49.448;8.612;2023-06-24T11:45:12;32.30;30.70
1107;DHT22;540;49.448;8.612;2023-06-24T11:47:42;31.90;31.10
1107;DHT22;540;49.448;8.612;2023-06-24T11:50:12;31.90;31.10
1107;DHT22;540;49.448;8.612;2023-06-24T11:52:42;31.80;31.00
1107;DHT22;540;49.448;8.612;2023-06-24T11:55:12;32.40;30.80
1107;DHT22;540;49.448;8.612;2023-06-24T11:57:56;32.30;30.00
1107;DHT22;540;49.448;8.612;2023-06-24T12:00:26;32.80;30.00
1107;DHT22;540;49.448;8.612;2023-06-24T12:02:56;33.10;29.50
1107;DHT22;540;49.448;8.612;2023-06-24T12:05:28;33.30;29.50
1107;DHT22;540;49.448;8.612;2023-06-24T12:07:58;33.50;28.60
1107;DHT22;540;49.448;8.612;2023-06-24T12:10:26;34.00;28.10
1107;DHT22;540;49.448;8.612;2023-06-24T12:12:56;33.90;28.40
1107;DHT22;540;49.448;8.612;2023-06-24T12:15:24;34.40;28.10
1107;DHT22;540;49.448;8.612;2023-06-24T12:17:52;34.40;28.10
1107;DHT22;540;49.448;8.612;2023-06-24T12:20:20;34.20;28.00
1107;DHT22;540;49.448;8.612;2023-06-24T12:22:50;34.00;28.30
1107;DHT22;540;49.448;8.612;2023-06-24T12:25:18;33.60;28.50
1107;DHT22;540;49.448;8.612;2023-06-24T12:27:46;33.30;28.80
1107;DHT22;540;49.448;8.612;2023-06-24T12:30:14;33.40;29.20
1107;DHT22;540;49.448;8.612;2023-06-24T12:32:43;33.30;28.80
1107;DHT22;540;49.448;8.612;2023-06-24T12:35:11;33.20;29.00
1107;DHT22;540;49.448;8.612;2023-06-24T12:37:39;33.30;28.80
1107;DHT22;540;49.448;8.612;2023-06-24T12:40:09;33.10;29.00
1107;DHT22;540;49.448;8.612;2023-06-24T12:42:37;32.90;29.40
1107;DHT22;540;49.448;8.612;2023-06-24T12:45:05;32.80;29.50
1107;DHT22;540;49.448;8.612;2023-06-24T12:47:34;32.80;30.00
1107;DHT22;540;49.448;8.612;2023-06-24T12:50:02;32.40;30.20
1107;DHT22;540;49.448;8.612;2023-06-24T12:52:35;32.40;29.90
1107;DHT22;540;49.448;8.612;2023-06-24T12:55:04;32.30;29.50
1107;DHT22;540;49.448;8.612;2023-06-24T12:57:34;32.10;29.80
1107;DHT22;540;49.448;8.612;2023-06-24T13:00:02;32.00;30.00
1107;DHT22;540;49.448;8.612;2023-06-24T13:02:32;31.90;30.20
1107;DHT22;540;49.448;8.612;2023-06-24T13:05:00;31.80;30.30
1107;DHT22;540;49.448;8.612;2023-06-24T13:07:28;31.70;30.20
1107;DHT22;540;49.448;8.612;2023-06-24T13:09:56;31.70;30.20
1107;DHT22;540;49.448;8.612;2023-06-24T13:12:26;31.80;30.50
1107;DHT22;540;49.448;8.612;2023-06-24T13:14:55;31.80;30.80
1107;DHT22;540;49.448;8.612;2023-06-24T13:17:22;31.70;30.30
1107;DHT22;540;49.448;8.612;2023-06-24T13:19:51;31.80;30.60
1107;DHT22;540;49.448;8.612;2023-06-24T13:22:20;32.10;31.20
1107;DHT22;540;49.448;8.612;2023-06-24T13:24:48;32.30;30.80
1107;DHT22;540;49.448;8.612;2023-06-24T13:27:16;32.20;30.50
1107;DHT22;540;49.448;8.612;2023-06-24T13:29:44;32.00;30.70
1107;DHT22;540;49.448;8.612;2023-06-24T13:32:13;31.90;30.00
1107;DHT22;540;49.448;8.612;2023-06-24T13:34:41;32.10;30.00
1107;DHT22;540;49.448;8.612;2023-06-24T13:37:09;32.30;29.90
1107;DHT22;540;49.448;8.612;2023-06-24T13:39:37;32.30;29.40
1107;DHT22;540;49.448;8.612;2023-06-24T13:42:05;32.00;29.60
1107;DHT22;540;49.448;8.612;2023-06-24T13:44:33;31.80;30.00
1107;DHT22;540;49.448;8.612;2023-06-24T13:47:01;31.70;31.10
1107;DHT22;540;49.448;8.612;2023-06-24T13:49:31;31.60;32.00
1107;DHT22;540;49.448;8.612;2023-06-24T13:51:58;31.60;32.90
1107;DHT22;540;49.448;8.612;2023-06-24T13:54:26;31.50;32.80
1107;DHT22;540;49.448;8.612;2023-06-24T13:56:57;31.50;33.00
1107;DHT22;540;49.448;8.612;2023-06-24T13:59:25;31.50;32.20
1107;DHT22;540;49.448;8.612;2023-06-24T14:01:53;31.50;32.20
1107;DHT22;540;49.448;8.612;2023-06-24T14:04:22;31.30;33.00
1107;DHT22;540;49.448;8.612;2023-06-24T14:06:52;31.10;33.10
1107;DHT22;540;49.448;8.612;2023-06-24T14:09:20;30.90;33.40
1107;DHT22;540;49.448;8.612;2023-06-24T14:11:47;30.70;33.50
1107;DHT22;540;49.448;8.612;2023-06-24T14:14:15;30.80;34.10
1107;DHT22;540;49.448;8.612;2023-06-24T14:16:43;31.10;32.80
1107;DHT22;540;49.448;8.612;2023-06-24T14:19:11;31.40;31.70
1107;DHT22;540;49.448;8.612;2023-06-24T14:21:39;31.60;30.90
1107;DHT22;540;49.448;8.612;2023-06-24T14:24:08;31.90;30.80
1107;DHT22;540;49.448;8.612;2023-06-24T14:26:43;31.90;29.80
1107;DHT22;540;49.448;8.612;2023-06-24T14:29:11;31.60;30.10
1107;DHT22;540;49.448;8.612;2023-06-24T14:31:38;31.60;30.40
1107;DHT22;540;49.448;8.612;2023-06-24T14:34:06;31.60;31.00
1107;DHT22;540;49.448;8.612;2023-06-24T14:36:34;31.60;30.50
1107;DHT22;540;49.448;8.612;2023-06-24T14:39:02;31.70;30.50
1107;DHT22;540;49.448;8.612;2023-06-24T14:41:31;31.70;31.60
1107;DHT22;540;49.448;8.612;2023-06-24T14:43:59;31.50;32.30
1107;DHT22;540;49.448;8.612;2023-06-24T14:46:27;31.30;32.70
1107;DHT22;540;49.448;8.612;2023-06-24T14:48:55;30.90;33.00
1107;DHT22;540;49.448;8.612;2023-06-24T14:51:24;30.70;34.10
1107;DHT22;540;49.448;8.612;2023-06-24T14:53:54;30.50;34.30
1107;DHT22;540;49.448;8.612;2023-06-24T14:56:21;30.30;34.40
1107;DHT22;540;49.448;8.612;2023-06-24T14:58:51;30.30;35.00
1107;DHT22;540;49.448;8.612;2023-06-24T15:01:18;30.50;34.10
1107;DHT22;540;49.448;8.612;2023-06-24T15:03:46;30.60;32.60
1107;DHT22;540;49.448;8.612;2023-06-24T15:06:14;30.80;32.30
1107;DHT22;540;49.448;8.612;2023-06-24T15:08:42;30.90;32.30
1107;DHT22;540;49.448;8.612;2023-06-24T15:11:10;31.00;31.90
1107;DHT22;540;49.448;8.612;2023-06-24T15:13:38;31.00;31.70
1107;DHT22;540;49.448;8.612;2023-06-24T15:16:07;31.10;31.70
1107;DHT22;540;49.448;8.612;2023-06-24T15:18:35;31.20;30.90
1107;DHT22;540;49.448;8.612;2023-06-24T15:21:03;31.20;30.30
1107;DHT22;540;49.448;8.612;2023-06-24T15:23:30;31.30;30.90
1107;DHT22;540;49.448;8.612;2023-06-24T15:25:58;31.50;30.70
1107;DHT22;540;49.448;8.612;2023-06-24T15:28:26;31.60;30.00
1107;DHT22;540;49.448;8.612;2023-06-24T15:30:54;31.80;30.00
1107;DHT22;540;49.448;8.612;2023-06-24T15:33:23;31.90;29.70
1107;DHT22;540;49.448;8.612;2023-06-24T15:35:51;32.00;30.50
1107;DHT22;540;49.448;8.612;2023-06-24T15:38:20;31.60;30.00
1107;DHT22;540;49.448;8.612;2023-06-24T15:40:48;31.60;31.10
1107;DHT22;540;49.448;8.612;2023-06-24T15:43:16;31.50;31.90
1107;DHT22;540;49.448;8.612;2023-06-24T15:45:44;31.30;32.10
1107;DHT22;540;49.448;8.612;2023-06-24T15:48:11;31.10;32.10
1107;DHT22;540;49.448;8.612;2023-06-24T15:50:41;30.80;32.30
1107;DHT22;540;49.448;8.612;2023-06-24T15:53:09;30.60;32.80
1107;DHT22;540;49.448;8.612;2023-06-24T15:55:36;30.40;33.20
1107;DHT22;540;49.448;8.612;2023-06-24T15:58:04;30.30;33.50
1107;DHT22;540;49.448;8.612;2023-06-24T16:00:32;30.40;33.50
1107;DHT22;540;49.448;8.612;2023-06-24T16:03:00;30.30;33.50
1107;DHT22;540;49.448;8.612;2023-06-24T16:05:29;30.20;33.20
1107;DHT22;540;49.448;8.612;2023-06-24T16:07:58;30.10;33.70
1107;DHT22;540;49.448;8.612;2023-06-24T16:10:25;30.10;34.10
1107;DHT22;540;49.448;8.612;2023-06-24T16:12:53;30.00;33.70
1107;DHT22;540;49.448;8.612;2023-06-24T16:15:22;30.00;33.20
1107;DHT22;540;49.448;8.612;2023-06-24T16:17:50;30.20;33.20
1107;DHT22;540;49.448;8.612;2023-06-24T16:20:18;30.20;33.40
1107;DHT22;540;49.448;8.612;2023-06-24T16:22:47;30.30;31.90
1107;DHT22;540;49.448;8.612;2023-06-24T16:25:16;30.40;32.10
1107;DHT22;540;49.448;8.612;2023-06-24T16:27:44;30.40;32.70
1107;DHT22;540;49.448;8.612;2023-06-24T16:30:12;30.50;32.90
1107;DHT22;540;49.448;8.612;2023-06-24T16:32:40;30.40;33.40